createdAt,value
2018-11-14T00:00:31.477Z,5.93
2018-11-14T00:03:00.948Z,6.27
2018-11-14T00:05:29.389Z,5.47
2018-11-14T00:07:57.757Z,5.20
2018-11-14T00:10:26.049Z,6.13
2018-11-14T00:12:54.290Z,5.37
2018-11-14T00:15:23.925Z,5.73
2018-11-14T00:17:52.580Z,5.50
2018-11-14T00:20:20.843Z,5.50
2018-11-14T00:22:49.983Z,6.03
2018-11-14T00:25:18.242Z,5.83
2018-11-14T00:27:46.576Z,6.80
2018-11-14T00:30:23.442Z,5.50
2018-11-14T00:32:51.732Z,6.13
2018-11-14T00:35:20.032Z,6.60
2018-11-14T00:37:48.757Z,6.80
2018-11-14T00:40:18.145Z,7.07
2018-11-14T00:42:46.973Z,7.10
2018-11-14T00:45:16.617Z,6.57
2018-11-14T00:47:46.335Z,6.60
2018-11-14T00:50:15.537Z,6.73
2018-11-14T00:52:44.591Z,8.20
2018-11-14T00:55:16.251Z,7.80
2018-11-14T00:57:45.808Z,7.17
2018-11-14T01:00:16.978Z,7.50
2018-11-14T01:02:45.541Z,7.23
2018-11-14T01:05:14.609Z,7.43
2018-11-14T01:07:42.861Z,8.30
2018-11-14T01:10:12.921Z,7.30
2018-11-14T01:12:41.481Z,7.07
2018-11-14T01:15:15.080Z,7.23
2018-11-14T01:17:46.422Z,7.40
2018-11-14T01:20:15.964Z,8.20
2018-11-14T01:22:44.625Z,8.57
2018-11-14T01:25:13.933Z,8.23
2018-11-14T01:27:42.428Z,8.03
2018-11-14T01:30:16.618Z,7.20
2018-11-14T01:32:45.864Z,8.00
2018-11-14T01:35:14.719Z,7.90
2018-11-14T01:37:43.005Z,7.60
2018-11-14T01:40:19.025Z,7.63
2018-11-14T01:42:52.553Z,8.47
2018-11-14T01:45:20.880Z,7.63
2018-11-14T01:47:49.316Z,9.57
2018-11-14T01:50:17.657Z,7.87
2018-11-14T01:52:45.946Z,9.37
2018-11-14T01:55:16.287Z,8.47
2018-11-14T01:57:44.562Z,8.23
2018-11-14T02:00:14.125Z,10.00
2018-11-14T02:02:42.356Z,8.93
2018-11-14T02:05:11.234Z,9.27
2018-11-14T02:07:39.547Z,9.33
2018-11-14T02:10:09.489Z,9.33
2018-11-14T02:12:38.122Z,9.20
2018-11-14T02:15:07.954Z,9.27
2018-11-14T02:17:36.514Z,9.40
2018-11-14T02:20:05.958Z,9.97
2018-11-14T02:22:34.250Z,10.27
2018-11-14T02:25:02.475Z,10.53
2018-11-14T02:27:30.718Z,10.83
2018-11-14T02:29:58.971Z,10.97
2018-11-14T02:32:27.225Z,11.00
2018-11-14T02:34:55.457Z,11.30
2018-11-14T02:37:23.744Z,10.80
2018-11-14T02:39:51.978Z,11.43
2018-11-14T02:42:20.209Z,10.93
2018-11-14T02:44:48.469Z,11.87
2018-11-14T02:47:16.746Z,11.00
2018-11-14T02:49:45.084Z,10.97
2018-11-14T02:52:13.338Z,11.20
2018-11-14T02:54:41.603Z,11.83
2018-11-14T02:57:09.838Z,12.17
2018-11-14T02:59:38.110Z,11.37
2018-11-14T03:02:06.855Z,13.23
2018-11-14T03:04:35.209Z,13.17
2018-11-14T03:07:03.676Z,13.37
2018-11-14T03:09:31.937Z,12.83
2018-11-14T03:12:00.296Z,12.50
2018-11-14T03:14:28.563Z,13.20
2018-11-14T03:16:57.447Z,12.50
2018-11-14T03:19:26.451Z,13.27
2018-11-14T03:24:30.126Z,13.83
2018-11-14T03:26:58.381Z,13.93
2018-11-14T03:29:26.622Z,13.90
2018-11-14T03:31:54.900Z,13.13
2018-11-14T03:34:23.141Z,13.97
2018-11-14T03:36:51.389Z,13.57
2018-11-14T03:39:19.616Z,14.00
2018-11-14T03:41:47.889Z,13.77
2018-11-14T03:44:16.197Z,13.87
2018-11-14T03:49:37.767Z,14.97
2018-11-14T03:52:06.682Z,15.47
2018-11-14T03:54:35.971Z,15.03
2018-11-14T03:57:04.219Z,16.20
2018-11-14T03:59:32.477Z,17.07
2018-11-14T04:02:02.716Z,17.00
2018-11-14T04:04:30.973Z,16.97
2018-11-14T04:06:59.176Z,16.50
2018-11-14T04:09:27.495Z,16.37
2018-11-14T04:11:55.673Z,15.90
2018-11-14T04:14:23.911Z,16.17
2018-11-14T04:16:52.128Z,16.50
2018-11-14T04:19:20.508Z,17.67
2018-11-14T04:21:48.984Z,18.93
2018-11-14T04:24:17.218Z,18.93
2018-11-14T04:26:45.460Z,17.80
2018-11-14T04:29:13.685Z,18.90
2018-11-14T04:31:41.942Z,20.53
2018-11-14T04:34:10.237Z,21.97
2018-11-14T04:36:38.471Z,22.40
2018-11-14T04:39:09.169Z,21.80
2018-11-14T04:41:37.399Z,23.73
2018-11-14T04:44:06.228Z,25.37
2018-11-14T04:46:34.552Z,26.63
2018-11-14T04:49:02.846Z,27.57
2018-11-14T04:51:31.109Z,28.00
2018-11-14T04:53:59.336Z,30.10
2018-11-14T04:56:27.702Z,29.97
2018-11-14T04:58:56.003Z,31.83
2018-11-14T05:01:24.286Z,31.47
2018-11-14T05:03:52.605Z,32.67
2018-11-14T05:06:20.830Z,31.07
2018-11-14T05:08:49.120Z,31.87
2018-11-14T05:11:17.385Z,33.83
2018-11-14T05:13:45.616Z,33.10
2018-11-14T05:16:13.824Z,33.53
2018-11-14T05:18:42.108Z,32.57
2018-11-14T05:21:10.387Z,36.00
2018-11-14T05:23:38.611Z,35.23
2018-11-14T05:26:06.890Z,36.43
2018-11-14T05:28:35.097Z,34.93
2018-11-14T05:31:03.364Z,35.80
2018-11-14T05:33:31.657Z,35.30
2018-11-14T05:35:59.936Z,36.70
2018-11-14T05:38:28.203Z,35.90
2018-11-14T05:40:56.468Z,36.90
2018-11-14T05:43:24.718Z,35.87
2018-11-14T05:45:52.977Z,36.83
2018-11-14T05:48:21.252Z,39.07
2018-11-14T05:50:49.539Z,37.83
2018-11-14T05:53:17.765Z,37.13
2018-11-14T05:55:46.049Z,35.93
2018-11-14T05:58:14.329Z,39.87
2018-11-14T06:00:42.583Z,37.33
2018-11-14T06:03:10.870Z,36.43
2018-11-14T06:05:39.151Z,38.63
2018-11-14T06:08:07.387Z,38.83
2018-11-14T06:10:35.755Z,38.27
2018-11-14T06:15:57.415Z,37.70
2018-11-14T06:18:25.662Z,38.90
2018-11-14T06:20:53.901Z,37.00
2018-11-14T06:23:22.232Z,39.83
2018-11-14T06:25:50.510Z,37.33
2018-11-14T06:28:18.785Z,38.87
2018-11-14T06:30:47.072Z,40.30
2018-11-14T06:33:15.289Z,37.53
2018-11-14T06:35:43.541Z,36.53
2018-11-14T06:38:11.839Z,38.57
2018-11-14T06:40:40.083Z,39.73
2018-11-14T06:43:08.337Z,38.00
2018-11-14T06:45:36.708Z,36.47
2018-11-14T06:48:05.466Z,35.50
2018-11-14T06:50:33.787Z,36.73
2018-11-14T06:53:03.510Z,35.33
2018-11-14T06:55:31.877Z,34.40
2018-11-14T06:58:00.267Z,33.73
2018-11-14T07:00:29.863Z,33.07
2018-11-14T07:03:02.247Z,33.00
2018-11-14T07:05:30.608Z,32.57
2018-11-14T07:07:58.779Z,32.67
2018-11-14T07:10:29.408Z,33.23
2018-11-14T07:13:02.971Z,32.00
2018-11-14T07:15:31.225Z,32.73
2018-11-14T07:17:59.527Z,31.27
2018-11-14T07:20:29.203Z,31.93
2018-11-14T07:22:57.529Z,31.13
2018-11-14T07:25:25.829Z,33.00
2018-11-14T07:27:54.110Z,32.47
2018-11-14T07:30:25.549Z,32.80
2018-11-14T07:32:56.193Z,30.03
2018-11-14T07:35:24.446Z,31.90
2018-11-14T07:38:37.929Z,31.53
2018-11-14T07:41:07.785Z,30.57
2018-11-14T07:43:36.878Z,31.97
2018-11-14T07:46:05.415Z,32.57
2018-11-14T07:48:34.307Z,33.13
2018-11-14T07:51:02.959Z,34.23
2018-11-14T07:53:31.285Z,31.93
2018-11-14T07:55:59.530Z,33.27
2018-11-14T07:58:27.868Z,34.77
2018-11-14T08:01:02.610Z,32.73
2018-11-14T08:03:30.925Z,34.60
2018-11-14T08:05:59.242Z,34.17
2018-11-14T08:08:27.581Z,33.73
2018-11-14T08:10:55.840Z,32.53
2018-11-14T08:13:25.445Z,31.63
2018-11-14T08:15:55.484Z,30.57
2018-11-14T08:18:24.035Z,31.50
2018-11-14T08:20:52.327Z,28.67
2018-11-14T08:23:20.574Z,30.07
2018-11-14T08:25:49.109Z,30.73
2018-11-14T08:28:17.403Z,30.87
2018-11-14T08:30:46.286Z,31.87
2018-11-14T08:33:14.583Z,32.37
2018-11-14T08:35:42.861Z,33.60
2018-11-14T08:38:11.288Z,33.13
2018-11-14T08:40:39.634Z,34.40
2018-11-14T08:43:08.175Z,33.03
2018-11-14T08:45:36.493Z,34.40
2018-11-14T08:48:05.213Z,32.23
2018-11-14T08:50:33.485Z,33.50
2018-11-14T08:53:02.002Z,34.43
2018-11-14T08:55:30.293Z,34.60
2018-11-14T08:57:58.689Z,34.53
2018-11-14T09:00:28.018Z,32.80
2018-11-14T09:02:56.377Z,32.97
2018-11-14T09:05:24.721Z,31.80
2018-11-14T09:07:53.063Z,31.53
2018-11-14T09:10:22.573Z,33.03
2018-11-14T09:12:50.902Z,32.30
2018-11-14T09:15:20.433Z,33.67
2018-11-14T09:17:48.953Z,32.57
2018-11-14T09:20:18.672Z,33.37
2018-11-14T09:22:47.068Z,31.83
2018-11-14T09:25:22.026Z,33.33
2018-11-14T09:27:50.310Z,32.53
2018-11-14T09:30:22.027Z,33.87
2018-11-14T09:32:50.372Z,33.57
2018-11-14T09:35:19.840Z,31.27
2018-11-14T09:37:48.156Z,30.40
2018-11-14T09:40:18.207Z,32.23
2018-11-14T09:42:46.534Z,33.70
2018-11-14T09:45:16.998Z,35.00
2018-11-14T09:47:45.216Z,36.37
2018-11-14T09:50:18.689Z,39.13
2018-11-14T09:52:48.361Z,32.07
2018-11-14T09:55:16.660Z,33.47
2018-11-14T09:57:45.146Z,29.73
2018-11-14T10:00:15.682Z,27.93
2018-11-14T10:02:44.063Z,28.37
2018-11-14T10:05:15.687Z,28.77
2018-11-14T10:07:44.196Z,28.53
2018-11-14T10:10:13.759Z,28.33
2018-11-14T10:12:42.037Z,28.77
2018-11-14T10:15:13.707Z,28.83
2018-11-14T10:17:42.965Z,26.70
2018-11-14T10:23:03.860Z,27.60
2018-11-14T10:25:32.134Z,29.07
2018-11-14T10:28:00.471Z,29.33
2018-11-14T10:30:29.231Z,29.00
2018-11-14T10:32:57.455Z,28.30
2018-11-14T10:35:25.862Z,25.83
2018-11-14T10:37:54.137Z,28.37
2018-11-14T10:40:24.681Z,29.97
2018-11-14T10:42:53.052Z,28.17
2018-11-14T10:45:22.669Z,31.60
2018-11-14T10:47:51.867Z,28.57
2018-11-14T10:50:21.735Z,29.93
2018-11-14T10:52:49.993Z,28.97
2018-11-14T10:55:18.891Z,26.33
2018-11-14T10:57:47.229Z,30.27
2018-11-14T11:00:23.009Z,28.30
2018-11-14T11:02:56.629Z,28.07
2018-11-14T11:06:27.977Z,29.53
2018-11-14T11:09:01.536Z,28.03
2018-11-14T11:11:31.412Z,27.90
2018-11-14T11:14:06.576Z,27.87
2018-11-14T11:16:34.888Z,25.60
2018-11-14T11:19:03.139Z,25.47
2018-11-14T11:21:31.435Z,26.47
2018-11-14T11:23:59.676Z,25.57
2018-11-14T11:26:27.922Z,32.03
2018-11-14T11:28:56.154Z,28.20
2018-11-14T11:31:24.451Z,29.43
2018-11-14T11:33:52.726Z,28.37
2018-11-14T11:36:21.002Z,27.67
2018-11-14T11:38:49.269Z,28.50
2018-11-14T11:41:17.550Z,27.70
2018-11-14T11:43:45.807Z,27.17
2018-11-14T11:46:14.081Z,27.80
2018-11-14T11:48:42.356Z,27.50
2018-11-14T11:51:10.647Z,27.87
2018-11-14T11:53:38.826Z,30.23
2018-11-14T11:56:07.107Z,30.90
2018-11-14T11:58:35.358Z,30.93
2018-11-14T12:01:03.604Z,31.97
2018-11-14T12:03:31.913Z,31.07
2018-11-14T12:06:00.261Z,36.97
2018-11-14T12:08:28.445Z,35.27
2018-11-14T12:10:56.692Z,35.10
2018-11-14T12:13:25.011Z,32.93
2018-11-14T12:15:53.262Z,34.10
2018-11-14T12:18:21.544Z,32.37
2018-11-14T12:20:49.911Z,32.67
2018-11-14T12:23:19.066Z,35.17
2018-11-14T12:25:47.435Z,33.90
2018-11-14T12:28:15.696Z,34.77
2018-11-14T12:30:44.148Z,32.03
2018-11-14T12:33:12.417Z,32.67
2018-11-14T12:35:40.717Z,35.93
2018-11-14T12:38:09.140Z,36.20
2018-11-14T12:40:37.419Z,34.10
2018-11-14T12:43:07.671Z,35.10
2018-11-14T12:45:36.106Z,33.23
2018-11-14T12:48:04.382Z,33.80
2018-11-14T12:50:32.662Z,33.23
2018-11-14T12:53:00.914Z,33.80
2018-11-14T12:55:29.197Z,33.53
2018-11-14T12:57:57.446Z,32.83
2018-11-14T13:00:25.737Z,33.50
2018-11-14T13:02:53.992Z,33.83
2018-11-14T13:05:22.304Z,37.93
2018-11-14T13:07:50.659Z,32.87
2018-11-14T13:10:19.641Z,34.47
2018-11-14T13:12:48.974Z,35.67
2018-11-14T13:15:18.436Z,37.93
2018-11-14T13:17:46.697Z,39.03
2018-11-14T13:20:17.361Z,51.73
2018-11-14T13:22:46.062Z,49.00
2018-11-14T13:25:14.993Z,43.37
2018-11-14T13:27:44.545Z,35.70
2018-11-14T13:30:16.482Z,35.50
2018-11-14T13:32:45.563Z,40.13
2018-11-14T13:35:15.220Z,39.47
2018-11-14T13:37:44.113Z,38.60
2018-11-14T13:43:05.419Z,36.17
2018-11-14T13:48:26.853Z,34.63
2018-11-14T13:50:55.406Z,35.47
2018-11-14T13:53:23.684Z,34.73
2018-11-14T13:55:51.990Z,37.50
2018-11-14T13:58:20.270Z,35.23
2018-11-14T14:00:48.542Z,34.47
2018-11-14T14:03:16.805Z,35.00
2018-11-14T14:05:45.084Z,35.90
2018-11-14T14:08:13.363Z,34.83
2018-11-14T14:10:41.611Z,38.40
2018-11-14T14:13:09.870Z,34.40
2018-11-14T14:15:38.128Z,33.23
2018-11-14T14:18:06.570Z,33.80
2018-11-14T14:20:34.806Z,32.50
2018-11-14T14:23:03.032Z,32.00
2018-11-14T14:25:31.358Z,32.07
2018-11-14T14:27:59.584Z,32.83
2018-11-14T14:30:27.887Z,31.97
2018-11-14T14:32:56.180Z,30.73
2018-11-14T14:35:24.659Z,30.50
2018-11-14T14:37:52.915Z,31.57
2018-11-14T14:40:22.391Z,30.20
2018-11-14T14:42:50.816Z,30.83
2018-11-14T14:45:20.471Z,29.90
2018-11-14T14:47:48.775Z,28.30
2018-11-14T14:50:18.301Z,27.10
2018-11-14T14:52:46.803Z,29.27
2018-11-14T14:55:18.383Z,26.03
2018-11-14T14:57:47.137Z,26.37
2018-11-14T15:00:18.915Z,27.13
2018-11-14T15:02:47.260Z,28.67
2018-11-14T15:05:15.533Z,33.93
2018-11-14T15:07:43.979Z,32.73
2018-11-14T15:10:14.363Z,27.90
2018-11-14T15:12:42.853Z,27.70
2018-11-14T15:15:11.561Z,27.40
2018-11-14T15:17:39.887Z,23.73
2018-11-14T15:20:15.745Z,23.80
2018-11-14T15:22:44.114Z,22.47
2018-11-14T15:25:16.976Z,23.97
2018-11-14T15:27:45.995Z,29.70
2018-11-14T15:30:19.050Z,26.83
2018-11-14T15:32:47.465Z,30.40
2018-11-14T15:35:15.959Z,25.50
2018-11-14T15:40:36.892Z,19.83
2018-11-14T15:43:05.364Z,21.40
2018-11-14T15:45:33.687Z,21.73
2018-11-14T15:48:02.069Z,20.33
2018-11-14T15:50:30.968Z,20.63
2018-11-14T15:52:59.533Z,21.00
2018-11-14T15:55:27.797Z,20.40
2018-11-14T15:57:56.442Z,19.93
2018-11-14T16:00:25.938Z,21.47
2018-11-14T16:02:54.411Z,20.57
2018-11-14T16:05:23.812Z,26.33
2018-11-14T16:07:53.278Z,23.90
2018-11-14T16:10:23.033Z,27.60
2018-11-14T16:12:51.342Z,28.03
2018-11-14T16:15:22.038Z,28.37
2018-11-14T16:17:50.379Z,26.80
2018-11-14T16:20:19.969Z,21.97
2018-11-14T16:22:48.711Z,19.77
2018-11-14T16:25:18.282Z,19.40
2018-11-14T16:27:47.467Z,19.00
2018-11-14T16:30:18.057Z,18.00
2018-11-14T16:32:47.537Z,19.27
2018-11-14T16:35:15.974Z,22.17
2018-11-14T16:37:44.614Z,22.27
2018-11-14T16:40:15.123Z,18.13
2018-11-14T16:42:43.472Z,16.77
2018-11-14T16:45:12.417Z,16.63
2018-11-14T16:47:40.885Z,19.07
2018-11-14T16:50:10.674Z,21.07
2018-11-14T16:52:39.072Z,20.60
2018-11-14T16:55:08.444Z,16.23
2018-11-14T16:57:37.554Z,18.63
2018-11-14T17:00:08.794Z,18.87
2018-11-14T17:02:37.188Z,18.10
2018-11-14T17:07:58.513Z,16.33
2018-11-14T17:10:26.950Z,17.97
2018-11-14T17:12:57.615Z,16.03
2018-11-14T17:15:26.673Z,19.33
2018-11-14T17:17:54.926Z,19.83
2018-11-14T17:20:23.696Z,20.17
2018-11-14T17:22:53.062Z,19.27
2018-11-14T17:25:21.558Z,17.70
2018-11-14T17:27:50.053Z,17.10
2018-11-14T17:30:21.602Z,15.70
2018-11-14T17:32:50.100Z,15.10
2018-11-14T17:35:18.772Z,17.43
2018-11-14T17:37:47.427Z,16.40
2018-11-14T17:40:18.030Z,15.83
2018-11-14T17:42:47.206Z,23.40
2018-11-14T17:45:17.114Z,18.97
2018-11-14T17:47:45.710Z,16.17
2018-11-14T17:50:17.249Z,16.23
2018-11-14T17:52:45.737Z,13.67
2018-11-14T17:55:14.858Z,17.73
2018-11-14T17:57:43.251Z,15.83
2018-11-14T18:00:13.668Z,17.23
2018-11-14T18:02:42.904Z,17.97
2018-11-14T18:05:13.381Z,13.73
2018-11-14T18:07:42.161Z,15.03
2018-11-14T18:10:12.174Z,10.80
2018-11-14T18:12:40.830Z,14.67
2018-11-14T18:15:10.052Z,15.27
2018-11-14T18:17:39.036Z,11.23
2018-11-14T18:20:26.894Z,11.23
2018-11-14T18:22:55.385Z,12.23
2018-11-14T18:28:16.813Z,11.13
2018-11-14T18:30:45.152Z,10.90
2018-11-14T18:33:13.537Z,10.73
2018-11-14T18:35:41.976Z,11.33
2018-11-14T18:38:10.253Z,12.10
2018-11-14T18:40:38.549Z,11.40
2018-11-14T18:43:06.829Z,12.67
2018-11-14T18:45:36.055Z,13.57
2018-11-14T18:48:05.176Z,11.93
2018-11-14T18:50:33.442Z,13.30
2018-11-14T18:53:01.670Z,16.13
2018-11-14T18:55:32.317Z,11.60
2018-11-14T18:58:01.469Z,10.93
2018-11-14T19:00:30.881Z,11.00
2018-11-14T19:02:59.577Z,14.27
2018-11-14T19:05:27.951Z,12.90
2018-11-14T19:07:56.293Z,11.73
2018-11-14T19:10:25.990Z,12.17
2018-11-14T19:12:54.430Z,10.83
2018-11-14T19:15:23.905Z,11.73
2018-11-14T19:17:52.143Z,11.07
2018-11-14T19:20:21.790Z,10.80
2018-11-14T19:22:50.389Z,10.73
2018-11-14T19:25:20.061Z,10.67
2018-11-14T19:27:48.777Z,10.70
2018-11-14T19:30:18.148Z,10.47
2018-11-14T19:32:47.621Z,10.53
2018-11-14T19:35:16.131Z,12.07
2018-11-14T19:37:45.548Z,10.07
2018-11-14T19:40:16.588Z,10.83
2018-11-14T19:42:45.809Z,15.73
2018-11-14T19:45:16.351Z,13.90
2018-11-14T19:47:44.739Z,12.60
2018-11-14T19:50:14.488Z,11.03
2018-11-14T19:52:43.051Z,10.73
2018-11-14T19:55:12.717Z,11.07
2018-11-14T19:57:42.039Z,12.87
2018-11-14T20:00:22.925Z,15.57
2018-11-14T20:02:51.238Z,12.43
2018-11-14T20:05:19.943Z,11.40
2018-11-14T20:07:48.363Z,11.77
2018-11-14T20:10:18.186Z,9.80
2018-11-14T20:12:46.953Z,10.87
2018-11-14T20:15:17.772Z,10.30
2018-11-14T20:17:46.760Z,9.90
2018-11-14T20:20:17.557Z,11.70
2018-11-14T20:22:46.205Z,13.43
2018-11-14T20:25:14.493Z,12.07
2018-11-14T20:27:43.076Z,13.30
2018-11-14T20:30:13.063Z,11.47
2018-11-14T20:32:41.475Z,13.63
2018-11-14T20:35:27.817Z,14.17
2018-11-14T20:37:56.088Z,14.30
2018-11-14T20:40:24.810Z,12.33
2018-11-14T20:42:53.924Z,10.67
2018-11-14T20:45:24.332Z,11.37
2018-11-14T20:47:52.632Z,12.63
2018-11-14T20:50:22.203Z,12.17
2018-11-14T20:55:43.913Z,10.27
2018-11-14T20:58:12.193Z,9.17
2018-11-14T21:00:40.624Z,9.57
2018-11-14T21:03:09.208Z,9.60
2018-11-14T21:05:37.723Z,11.03
2018-11-14T21:08:06.574Z,10.47
2018-11-14T21:10:35.586Z,10.50
2018-11-14T21:13:04.501Z,10.63
2018-11-14T21:15:34.300Z,11.20
2018-11-14T21:18:15.184Z,9.87
2018-11-14T21:20:43.568Z,10.20
2018-11-14T21:23:11.897Z,10.83
2018-11-14T21:28:32.580Z,10.13
2018-11-14T21:31:00.878Z,10.17
2018-11-14T21:33:29.274Z,10.10
2018-11-14T21:35:57.693Z,11.83
2018-11-14T21:38:26.218Z,10.27
2018-11-14T21:40:54.512Z,11.30
2018-11-14T21:43:22.915Z,10.70
2018-11-14T21:45:51.578Z,10.50
2018-11-14T21:48:19.815Z,10.20
2018-11-14T21:50:48.160Z,10.83
2018-11-14T21:53:16.548Z,9.77
2018-11-14T21:55:44.771Z,10.13
2018-11-14T21:58:13.007Z,10.70
2018-11-14T22:00:41.853Z,10.17
2018-11-14T22:03:10.850Z,10.80
2018-11-14T22:05:39.480Z,10.87
2018-11-14T22:08:07.776Z,9.77
2018-11-14T22:10:36.061Z,10.40
2018-11-14T22:13:04.380Z,9.63
2018-11-14T22:15:32.873Z,9.00
2018-11-14T22:18:01.233Z,9.20
2018-11-14T22:20:30.234Z,9.77
2018-11-14T22:22:58.467Z,10.17
2018-11-14T22:25:27.926Z,9.53
2018-11-14T22:27:56.378Z,10.40
2018-11-14T22:30:27.528Z,9.67
2018-11-14T22:32:55.813Z,8.40
2018-11-14T22:35:25.489Z,9.87
2018-11-14T22:37:54.071Z,10.87
2018-11-14T22:40:23.604Z,9.03
2018-11-14T22:42:51.984Z,9.10
2018-11-14T22:45:22.722Z,9.03
2018-11-14T22:47:51.016Z,8.70
2018-11-14T22:50:20.869Z,9.70
2018-11-14T22:52:49.485Z,9.90
2018-11-14T22:55:19.138Z,10.70
2018-11-14T22:57:48.338Z,14.83
2018-11-14T23:00:22.813Z,12.27
2018-11-14T23:02:54.321Z,9.73
2018-11-14T23:05:22.584Z,9.90
2018-11-14T23:07:52.051Z,12.67
2018-11-14T23:10:21.248Z,14.00
2018-11-14T23:12:49.859Z,16.03
2018-11-14T23:15:18.539Z,12.90
2018-11-14T23:17:47.467Z,9.63
2018-11-14T23:20:16.416Z,10.23
2018-11-14T23:22:45.251Z,10.60
2018-11-14T23:25:14.025Z,11.77
2018-11-14T23:27:45.451Z,10.70
2018-11-14T23:30:14.877Z,15.70
2018-11-14T23:32:44.498Z,19.30
2018-11-14T23:35:17.174Z,13.83
2018-11-14T23:37:47.785Z,11.10
2018-11-14T23:40:15.992Z,11.47
2018-11-14T23:42:44.288Z,10.30
2018-11-14T23:45:13.734Z,9.20
2018-11-14T23:47:42.772Z,8.23
2018-11-14T23:50:13.673Z,8.53
2018-11-14T23:52:43.049Z,9.00
2018-11-14T23:55:11.345Z,8.90
2018-11-14T23:57:39.867Z,8.63
